sensor_id;sensor_type;location;lat;lon;timestamp;P1;durP1;ratioP1;P2;durP2;ratioP2
1765;SDS011;880;52.452;8.656;2023-02-15T00:00:04;21.35;;;13.13;;
1765;SDS011;880;52.452;8.656;2023-02-15T00:02:34;18.88;;;11.45;;
1765;SDS011;880;52.452;8.656;2023-02-15T00:05:01;20.90;;;12.32;;
1765;SDS011;880;52.452;8.656;2023-02-15T00:07:28;17.85;;;10.93;;
1765;SDS011;880;52.452;8.656;2023-02-15T00:09:55;18.80;;;11.40;;
1765;SDS011;880;52.452;8.656;2023-02-15T00:12:22;15.32;;;10.90;;
1765;SDS011;880;52.452;8.656;2023-02-15T00:14:49;18.55;;;11.35;;
1765;SDS011;880;52.452;8.656;2023-02-15T00:17:16;15.00;;;11.20;;
1765;SDS011;880;52.452;8.656;2023-02-15T00:19:43;15.07;;;11.10;;
1765;SDS011;880;52.452;8.656;2023-02-15T00:22:10;16.10;;;10.52;;
1765;SDS011;880;52.452;8.656;2023-02-15T00:24:37;18.10;;;12.32;;
1765;SDS011;880;52.452;8.656;2023-02-15T00:27:04;18.70;;;10.85;;
1765;SDS011;880;52.452;8.656;2023-02-15T00:29:31;15.85;;;10.50;;
1765;SDS011;880;52.452;8.656;2023-02-15T00:31:58;16.85;;;10.60;;
1765;SDS011;880;52.452;8.656;2023-02-15T00:34:25;14.73;;;10.20;;
1765;SDS011;880;52.452;8.656;2023-02-15T00:36:55;17.50;;;11.07;;
1765;SDS011;880;52.452;8.656;2023-02-15T00:39:22;19.02;;;11.70;;
1765;SDS011;880;52.452;8.656;2023-02-15T00:41:50;18.38;;;12.15;;
1765;SDS011;880;52.452;8.656;2023-02-15T00:44:17;15.93;;;11.40;;
1765;SDS011;880;52.452;8.656;2023-02-15T00:46:44;19.00;;;13.23;;
1765;SDS011;880;52.452;8.656;2023-02-15T00:49:11;19.13;;;12.70;;
1765;SDS011;880;52.452;8.656;2023-02-15T00:51:38;18.85;;;11.48;;
1765;SDS011;880;52.452;8.656;2023-02-15T00:54:05;17.67;;;12.10;;
1765;SDS011;880;52.452;8.656;2023-02-15T00:56:33;16.73;;;11.80;;
1765;SDS011;880;52.452;8.656;2023-02-15T00:59:00;18.65;;;11.30;;
1765;SDS011;880;52.452;8.656;2023-02-15T01:01:26;15.38;;;10.68;;
1765;SDS011;880;52.452;8.656;2023-02-15T01:03:54;14.07;;;10.07;;
1765;SDS011;880;52.452;8.656;2023-02-15T01:06:20;14.32;;;10.55;;
1765;SDS011;880;52.452;8.656;2023-02-15T01:08:47;17.52;;;11.10;;
1765;SDS011;880;52.452;8.656;2023-02-15T01:11:18;11.80;;;9.35;;
1765;SDS011;880;52.452;8.656;2023-02-15T01:13:55;17.50;;;10.63;;
1765;SDS011;880;52.452;8.656;2023-02-15T01:16:24;16.90;;;10.85;;
1765;SDS011;880;52.452;8.656;2023-02-15T01:18:54;19.00;;;11.40;;
1765;SDS011;880;52.452;8.656;2023-02-15T01:21:22;16.67;;;13.13;;
1765;SDS011;880;52.452;8.656;2023-02-15T01:23:51;13.23;;;10.02;;
1765;SDS011;880;52.452;8.656;2023-02-15T01:26:18;16.65;;;11.75;;
1765;SDS011;880;52.452;8.656;2023-02-15T01:28:45;16.85;;;11.85;;
1765;SDS011;880;52.452;8.656;2023-02-15T01:31:13;11.82;;;9.40;;
1765;SDS011;880;52.452;8.656;2023-02-15T01:33:44;15.77;;;10.05;;
1765;SDS011;880;52.452;8.656;2023-02-15T01:36:13;19.20;;;10.68;;
1765;SDS011;880;52.452;8.656;2023-02-15T01:38:40;17.85;;;11.02;;
1765;SDS011;880;52.452;8.656;2023-02-15T01:41:08;13.63;;;9.40;;
1765;SDS011;880;52.452;8.656;2023-02-15T01:43:56;19.40;;;9.80;;
1765;SDS011;880;52.452;8.656;2023-02-15T01:46:27;17.58;;;10.90;;
1765;SDS011;880;52.452;8.656;2023-02-15T01:49:09;13.52;;;8.32;;
1765;SDS011;880;52.452;8.656;2023-02-15T01:51:50;15.27;;;10.15;;
1765;SDS011;880;52.452;8.656;2023-02-15T01:54:29;15.57;;;9.88;;
1765;SDS011;880;52.452;8.656;2023-02-15T01:57:03;13.65;;;10.05;;
1765;SDS011;880;52.452;8.656;2023-02-15T01:59:35;15.95;;;9.65;;
1765;SDS011;880;52.452;8.656;2023-02-15T02:02:05;16.38;;;10.75;;
1765;SDS011;880;52.452;8.656;2023-02-15T02:04:38;19.60;;;11.65;;
1765;SDS011;880;52.452;8.656;2023-02-15T02:07:20;18.00;;;11.65;;
1765;SDS011;880;52.452;8.656;2023-02-15T02:09:50;18.77;;;11.77;;
1765;SDS011;880;52.452;8.656;2023-02-15T02:12:17;17.25;;;10.65;;
1765;SDS011;880;52.452;8.656;2023-02-15T02:14:47;19.30;;;10.95;;
1765;SDS011;880;52.452;8.656;2023-02-15T02:17:17;13.40;;;10.13;;
1765;SDS011;880;52.452;8.656;2023-02-15T02:23:02;18.95;;;12.50;;
1765;SDS011;880;52.452;8.656;2023-02-15T02:25:43;15.93;;;10.05;;
1765;SDS011;880;52.452;8.656;2023-02-15T02:29:09;18.55;;;10.98;;
1765;SDS011;880;52.452;8.656;2023-02-15T02:31:56;14.88;;;10.18;;
1765;SDS011;880;52.452;8.656;2023-02-15T02:34:50;15.60;;;10.23;;
1765;SDS011;880;52.452;8.656;2023-02-15T02:37:36;19.17;;;10.75;;
1765;SDS011;880;52.452;8.656;2023-02-15T02:49:33;14.20;;;9.35;;
1765;SDS011;880;52.452;8.656;2023-02-15T02:52:31;14.02;;;9.13;;
1765;SDS011;880;52.452;8.656;2023-02-15T02:55:17;15.40;;;9.73;;
1765;SDS011;880;52.452;8.656;2023-02-15T02:57:51;16.67;;;10.57;;
1765;SDS011;880;52.452;8.656;2023-02-15T03:06:12;17.15;;;10.02;;
1765;SDS011;880;52.452;8.656;2023-02-15T03:09:12;16.17;;;10.13;;
1765;SDS011;880;52.452;8.656;2023-02-15T03:11:48;14.77;;;9.68;;
1765;SDS011;880;52.452;8.656;2023-02-15T03:14:16;12.82;;;9.32;;
1765;SDS011;880;52.452;8.656;2023-02-15T03:16:46;15.93;;;9.27;;
1765;SDS011;880;52.452;8.656;2023-02-15T03:19:22;14.70;;;9.57;;
1765;SDS011;880;52.452;8.656;2023-02-15T03:21:58;14.48;;;10.05;;
1765;SDS011;880;52.452;8.656;2023-02-15T03:24:40;13.85;;;9.35;;
1765;SDS011;880;52.452;8.656;2023-02-15T03:27:17;12.75;;;8.43;;
1765;SDS011;880;52.452;8.656;2023-02-15T03:29:50;14.73;;;9.88;;
1765;SDS011;880;52.452;8.656;2023-02-15T03:32:21;16.80;;;10.65;;
1765;SDS011;880;52.452;8.656;2023-02-15T03:34:51;15.00;;;9.88;;
1765;SDS011;880;52.452;8.656;2023-02-15T03:37:32;17.92;;;9.82;;
1765;SDS011;880;52.452;8.656;2023-02-15T03:40:19;13.15;;;9.50;;
1765;SDS011;880;52.452;8.656;2023-02-15T03:46:00;16.75;;;10.27;;
1765;SDS011;880;52.452;8.656;2023-02-15T03:48:39;16.25;;;10.00;;
1765;SDS011;880;52.452;8.656;2023-02-15T03:51:12;18.35;;;10.15;;
1765;SDS011;880;52.452;8.656;2023-02-15T03:57:07;18.27;;;11.93;;
1765;SDS011;880;52.452;8.656;2023-02-15T04:00:00;20.45;;;11.18;;
1765;SDS011;880;52.452;8.656;2023-02-15T04:05:49;14.68;;;11.35;;
1765;SDS011;880;52.452;8.656;2023-02-15T04:08:16;16.73;;;9.75;;
1765;SDS011;880;52.452;8.656;2023-02-15T04:10:43;13.65;;;10.43;;
1765;SDS011;880;52.452;8.656;2023-02-15T04:13:19;17.92;;;11.45;;
1765;SDS011;880;52.452;8.656;2023-02-15T04:15:47;16.05;;;10.63;;
1765;SDS011;880;52.452;8.656;2023-02-15T04:18:33;16.63;;;10.02;;
1765;SDS011;880;52.452;8.656;2023-02-15T04:21:26;15.45;;;9.43;;
1765;SDS011;880;52.452;8.656;2023-02-15T04:24:14;24.02;;;11.25;;
1765;SDS011;880;52.452;8.656;2023-02-15T04:27:01;16.65;;;10.27;;
1765;SDS011;880;52.452;8.656;2023-02-15T04:29:29;17.23;;;10.57;;
1765;SDS011;880;52.452;8.656;2023-02-15T04:31:58;16.83;;;10.82;;
1765;SDS011;880;52.452;8.656;2023-02-15T04:34:27;18.33;;;11.35;;
1765;SDS011;880;52.452;8.656;2023-02-15T04:36:53;16.80;;;10.88;;
1765;SDS011;880;52.452;8.656;2023-02-15T04:39:20;17.10;;;10.88;;
1765;SDS011;880;52.452;8.656;2023-02-15T04:41:47;15.95;;;10.43;;
1765;SDS011;880;52.452;8.656;2023-02-15T04:44:14;17.55;;;10.65;;
1765;SDS011;880;52.452;8.656;2023-02-15T04:46:41;16.60;;;11.15;;
1765;SDS011;880;52.452;8.656;2023-02-15T04:49:08;16.80;;;12.02;;
1765;SDS011;880;52.452;8.656;2023-02-15T04:51:35;20.88;;;12.68;;
1765;SDS011;880;52.452;8.656;2023-02-15T04:54:02;13.95;;;9.88;;
1765;SDS011;880;52.452;8.656;2023-02-15T04:56:29;16.63;;;9.68;;
1765;SDS011;880;52.452;8.656;2023-02-15T04:58:57;12.95;;;9.90;;
1765;SDS011;880;52.452;8.656;2023-02-15T05:01:24;17.50;;;10.02;;
1765;SDS011;880;52.452;8.656;2023-02-15T05:03:51;14.98;;;10.05;;
1765;SDS011;880;52.452;8.656;2023-02-15T05:06:18;14.65;;;9.73;;
1765;SDS011;880;52.452;8.656;2023-02-15T05:08:45;19.98;;;10.55;;
1765;SDS011;880;52.452;8.656;2023-02-15T05:11:12;14.82;;;10.13;;
1765;SDS011;880;52.452;8.656;2023-02-15T05:13:39;18.33;;;11.15;;
1765;SDS011;880;52.452;8.656;2023-02-15T05:16:06;15.55;;;11.55;;
1765;SDS011;880;52.452;8.656;2023-02-15T05:18:33;15.23;;;11.27;;
1765;SDS011;880;52.452;8.656;2023-02-15T05:21:00;21.77;;;11.45;;
1765;SDS011;880;52.452;8.656;2023-02-15T05:23:27;17.52;;;10.20;;
1765;SDS011;880;52.452;8.656;2023-02-15T05:25:54;17.48;;;9.60;;
1765;SDS011;880;52.452;8.656;2023-02-15T05:28:40;16.80;;;10.82;;
1765;SDS011;880;52.452;8.656;2023-02-15T05:31:11;15.73;;;10.07;;
1765;SDS011;880;52.452;8.656;2023-02-15T05:33:41;17.80;;;11.80;;
1765;SDS011;880;52.452;8.656;2023-02-15T05:36:08;16.98;;;10.68;;
1765;SDS011;880;52.452;8.656;2023-02-15T05:38:35;18.35;;;12.13;;
1765;SDS011;880;52.452;8.656;2023-02-15T05:41:04;15.68;;;11.48;;
1765;SDS011;880;52.452;8.656;2023-02-15T05:43:32;14.40;;;10.07;;
1765;SDS011;880;52.452;8.656;2023-02-15T05:45:59;18.88;;;11.82;;
1765;SDS011;880;52.452;8.656;2023-02-15T05:48:27;17.35;;;11.23;;
1765;SDS011;880;52.452;8.656;2023-02-15T05:53:26;14.25;;;10.00;;
1765;SDS011;880;52.452;8.656;2023-02-15T05:55:55;19.17;;;11.55;;
1765;SDS011;880;52.452;8.656;2023-02-15T05:58:26;14.98;;;9.35;;
1765;SDS011;880;52.452;8.656;2023-02-15T06:00:56;16.33;;;9.77;;
1765;SDS011;880;52.452;8.656;2023-02-15T06:03:23;33.22;;;11.30;;
1765;SDS011;880;52.452;8.656;2023-02-15T06:05:52;39.67;;;12.68;;
1765;SDS011;880;52.452;8.656;2023-02-15T06:08:19;52.83;;;13.90;;
1765;SDS011;880;52.452;8.656;2023-02-15T06:10:46;26.65;;;16.38;;
1765;SDS011;880;52.452;8.656;2023-02-15T06:13:13;20.83;;;13.55;;
1765;SDS011;880;52.452;8.656;2023-02-15T06:15:40;15.48;;;11.57;;
1765;SDS011;880;52.452;8.656;2023-02-15T06:18:07;15.95;;;10.50;;
1765;SDS011;880;52.452;8.656;2023-02-15T06:20:35;14.85;;;11.85;;
1765;SDS011;880;52.452;8.656;2023-02-15T06:23:02;16.88;;;10.38;;
1765;SDS011;880;52.452;8.656;2023-02-15T06:25:29;13.57;;;10.18;;
1765;SDS011;880;52.452;8.656;2023-02-15T06:27:55;16.42;;;10.70;;
1765;SDS011;880;52.452;8.656;2023-02-15T06:30:22;17.08;;;11.43;;
1765;SDS011;880;52.452;8.656;2023-02-15T06:32:50;15.32;;;9.88;;
1765;SDS011;880;52.452;8.656;2023-02-15T06:35:16;12.32;;;9.45;;
1765;SDS011;880;52.452;8.656;2023-02-15T06:37:45;17.40;;;10.73;;
1765;SDS011;880;52.452;8.656;2023-02-15T06:40:12;12.73;;;11.05;;
1765;SDS011;880;52.452;8.656;2023-02-15T06:42:40;19.35;;;11.27;;
1765;SDS011;880;52.452;8.656;2023-02-15T06:45:08;21.27;;;10.75;;
1765;SDS011;880;52.452;8.656;2023-02-15T06:47:36;15.95;;;10.65;;
1765;SDS011;880;52.452;8.656;2023-02-15T06:50:04;13.73;;;9.43;;
1765;SDS011;880;52.452;8.656;2023-02-15T06:52:31;14.77;;;10.20;;
1765;SDS011;880;52.452;8.656;2023-02-15T06:54:58;16.65;;;10.40;;
1765;SDS011;880;52.452;8.656;2023-02-15T06:57:25;17.02;;;10.52;;
1765;SDS011;880;52.452;8.656;2023-02-15T06:59:52;16.75;;;10.23;;
1765;SDS011;880;52.452;8.656;2023-02-15T07:02:19;12.68;;;10.57;;
1765;SDS011;880;52.452;8.656;2023-02-15T07:04:46;16.45;;;9.73;;
1765;SDS011;880;52.452;8.656;2023-02-15T07:07:13;15.35;;;10.07;;
1765;SDS011;880;52.452;8.656;2023-02-15T07:09:40;15.55;;;10.23;;
1765;SDS011;880;52.452;8.656;2023-02-15T07:12:07;15.88;;;9.82;;
1765;SDS011;880;52.452;8.656;2023-02-15T07:14:54;14.38;;;10.35;;
1765;SDS011;880;52.452;8.656;2023-02-15T07:17:21;16.48;;;10.02;;
1765;SDS011;880;52.452;8.656;2023-02-15T07:20:04;14.20;;;10.07;;
1765;SDS011;880;52.452;8.656;2023-02-15T07:22:44;13.32;;;9.50;;
1765;SDS011;880;52.452;8.656;2023-02-15T07:25:11;16.08;;;11.43;;
1765;SDS011;880;52.452;8.656;2023-02-15T07:27:39;13.30;;;10.35;;
1765;SDS011;880;52.452;8.656;2023-02-15T07:30:07;21.63;;;11.75;;
1765;SDS011;880;52.452;8.656;2023-02-15T07:32:37;13.88;;;10.40;;
1765;SDS011;880;52.452;8.656;2023-02-15T07:35:24;14.57;;;10.80;;
1765;SDS011;880;52.452;8.656;2023-02-15T07:37:52;17.17;;;10.23;;
1765;SDS011;880;52.452;8.656;2023-02-15T07:40:20;18.95;;;12.68;;
1765;SDS011;880;52.452;8.656;2023-02-15T07:42:49;18.38;;;12.18;;
1765;SDS011;880;52.452;8.656;2023-02-15T07:45:20;18.77;;;11.30;;
1765;SDS011;880;52.452;8.656;2023-02-15T07:47:47;18.33;;;12.27;;
1765;SDS011;880;52.452;8.656;2023-02-15T07:50:14;17.05;;;11.00;;
1765;SDS011;880;52.452;8.656;2023-02-15T07:52:41;18.75;;;11.18;;
1765;SDS011;880;52.452;8.656;2023-02-15T07:55:08;20.05;;;11.27;;
1765;SDS011;880;52.452;8.656;2023-02-15T07:57:41;20.98;;;12.75;;
1765;SDS011;880;52.452;8.656;2023-02-15T08:00:13;18.98;;;12.57;;
1765;SDS011;880;52.452;8.656;2023-02-15T08:02:41;20.45;;;12.27;;
1765;SDS011;880;52.452;8.656;2023-02-15T08:05:13;23.38;;;14.18;;
1765;SDS011;880;52.452;8.656;2023-02-15T08:07:43;19.17;;;12.85;;
1765;SDS011;880;52.452;8.656;2023-02-15T08:10:09;25.85;;;13.95;;
1765;SDS011;880;52.452;8.656;2023-02-15T08:12:56;24.33;;;13.48;;
1765;SDS011;880;52.452;8.656;2023-02-15T08:15:23;23.25;;;13.10;;
1765;SDS011;880;52.452;8.656;2023-02-15T08:17:50;20.88;;;13.63;;
1765;SDS011;880;52.452;8.656;2023-02-15T08:20:17;20.98;;;13.70;;
1765;SDS011;880;52.452;8.656;2023-02-15T08:22:44;24.92;;;13.98;;
1765;SDS011;880;52.452;8.656;2023-02-15T08:25:11;23.27;;;13.60;;
1765;SDS011;880;52.452;8.656;2023-02-15T08:27:38;23.40;;;13.70;;
1765;SDS011;880;52.452;8.656;2023-02-15T08:30:05;23.95;;;13.95;;
1765;SDS011;880;52.452;8.656;2023-02-15T08:32:33;26.88;;;14.35;;
1765;SDS011;880;52.452;8.656;2023-02-15T08:35:00;19.60;;;13.27;;
1765;SDS011;880;52.452;8.656;2023-02-15T08:37:26;20.50;;;14.23;;
1765;SDS011;880;52.452;8.656;2023-02-15T08:39:53;20.40;;;13.93;;
1765;SDS011;880;52.452;8.656;2023-02-15T08:42:20;22.23;;;14.10;;
1765;SDS011;880;52.452;8.656;2023-02-15T08:44:47;20.23;;;13.98;;
1765;SDS011;880;52.452;8.656;2023-02-15T08:47:16;24.15;;;14.52;;
1765;SDS011;880;52.452;8.656;2023-02-15T08:49:43;21.45;;;13.27;;
1765;SDS011;880;52.452;8.656;2023-02-15T08:52:10;20.85;;;12.55;;
1765;SDS011;880;52.452;8.656;2023-02-15T08:54:37;20.92;;;13.57;;
1765;SDS011;880;52.452;8.656;2023-02-15T08:57:04;17.00;;;13.20;;
1765;SDS011;880;52.452;8.656;2023-02-15T08:59:33;19.67;;;13.90;;
1765;SDS011;880;52.452;8.656;2023-02-15T09:02:00;18.45;;;12.73;;
1765;SDS011;880;52.452;8.656;2023-02-15T09:04:27;18.40;;;12.00;;
1765;SDS011;880;52.452;8.656;2023-02-15T09:06:54;20.05;;;13.85;;
1765;SDS011;880;52.452;8.656;2023-02-15T09:09:21;18.40;;;13.85;;
1765;SDS011;880;52.452;8.656;2023-02-15T09:11:49;20.05;;;15.13;;
1765;SDS011;880;52.452;8.656;2023-02-15T09:14:23;18.08;;;14.43;;
1765;SDS011;880;52.452;8.656;2023-02-15T09:16:52;19.60;;;13.05;;
1765;SDS011;880;52.452;8.656;2023-02-15T09:19:20;22.00;;;16.42;;
1765;SDS011;880;52.452;8.656;2023-02-15T09:21:49;25.75;;;15.75;;
1765;SDS011;880;52.452;8.656;2023-02-15T09:24:16;24.70;;;15.57;;
1765;SDS011;880;52.452;8.656;2023-02-15T09:26:45;22.67;;;13.77;;
1765;SDS011;880;52.452;8.656;2023-02-15T09:29:14;22.15;;;14.27;;
1765;SDS011;880;52.452;8.656;2023-02-15T09:31:43;21.15;;;14.13;;
1765;SDS011;880;52.452;8.656;2023-02-15T09:34:15;19.13;;;13.43;;
1765;SDS011;880;52.452;8.656;2023-02-15T09:39:17;20.48;;;13.27;;
1765;SDS011;880;52.452;8.656;2023-02-15T09:48:01;16.48;;;13.23;;
1765;SDS011;880;52.452;8.656;2023-02-15T09:51:03;17.60;;;13.82;;
1765;SDS011;880;52.452;8.656;2023-02-15T09:54:16;18.80;;;14.05;;
1765;SDS011;880;52.452;8.656;2023-02-15T09:57:06;19.23;;;13.57;;
1765;SDS011;880;52.452;8.656;2023-02-15T10:00:07;16.20;;;12.32;;
1765;SDS011;880;52.452;8.656;2023-02-15T10:02:54;18.27;;;14.40;;
1765;SDS011;880;52.452;8.656;2023-02-15T10:17:26;18.13;;;13.15;;
1765;SDS011;880;52.452;8.656;2023-02-15T10:26:46;17.63;;;14.27;;
1765;SDS011;880;52.452;8.656;2023-02-15T10:34:54;14.93;;;12.85;;
1765;SDS011;880;52.452;8.656;2023-02-15T10:37:39;16.88;;;14.30;;
1765;SDS011;880;52.452;8.656;2023-02-15T10:40:32;18.80;;;16.90;;
1765;SDS011;880;52.452;8.656;2023-02-15T10:44:02;15.48;;;13.93;;
1765;SDS011;880;52.452;8.656;2023-02-15T10:46:39;19.88;;;15.88;;
1765;SDS011;880;52.452;8.656;2023-02-15T10:52:32;16.27;;;14.32;;
1765;SDS011;880;52.452;8.656;2023-02-15T10:58:29;15.90;;;14.23;;
1765;SDS011;880;52.452;8.656;2023-02-15T11:01:34;15.85;;;14.32;;
1765;SDS011;880;52.452;8.656;2023-02-15T11:07:38;17.45;;;15.63;;
1765;SDS011;880;52.452;8.656;2023-02-15T11:13:10;16.80;;;15.05;;
1765;SDS011;880;52.452;8.656;2023-02-15T11:15:43;16.58;;;14.98;;
1765;SDS011;880;52.452;8.656;2023-02-15T11:18:23;16.27;;;14.68;;
1765;SDS011;880;52.452;8.656;2023-02-15T11:21:10;16.92;;;15.13;;
1765;SDS011;880;52.452;8.656;2023-02-15T11:23:49;17.63;;;15.82;;
1765;SDS011;880;52.452;8.656;2023-02-15T11:26:34;17.25;;;15.32;;
1765;SDS011;880;52.452;8.656;2023-02-15T11:29:12;18.77;;;16.88;;
1765;SDS011;880;52.452;8.656;2023-02-15T11:31:55;18.20;;;15.77;;
1765;SDS011;880;52.452;8.656;2023-02-15T11:34:49;18.13;;;16.20;;
1765;SDS011;880;52.452;8.656;2023-02-15T11:37:35;16.70;;;15.10;;
1765;SDS011;880;52.452;8.656;2023-02-15T11:40:25;17.25;;;15.50;;
1765;SDS011;880;52.452;8.656;2023-02-15T11:42:58;17.52;;;15.68;;
1765;SDS011;880;52.452;8.656;2023-02-15T11:45:32;17.25;;;15.52;;
1765;SDS011;880;52.452;8.656;2023-02-15T11:48:00;19.08;;;17.25;;
1765;SDS011;880;52.452;8.656;2023-02-15T11:50:35;22.27;;;20.08;;
1765;SDS011;880;52.452;8.656;2023-02-15T11:53:05;17.58;;;15.57;;
1765;SDS011;880;52.452;8.656;2023-02-15T11:55:54;18.70;;;16.13;;
1765;SDS011;880;52.452;8.656;2023-02-15T11:58:29;18.08;;;16.35;;
1765;SDS011;880;52.452;8.656;2023-02-15T12:01:10;17.40;;;15.70;;
1765;SDS011;880;52.452;8.656;2023-02-15T12:06:59;18.42;;;16.60;;
1765;SDS011;880;52.452;8.656;2023-02-15T12:09:59;20.67;;;17.90;;
1765;SDS011;880;52.452;8.656;2023-02-15T12:15:07;19.75;;;16.40;;
1765;SDS011;880;52.452;8.656;2023-02-15T12:22:45;22.35;;;17.88;;
1765;SDS011;880;52.452;8.656;2023-02-15T12:25:52;18.50;;;16.67;;
1765;SDS011;880;52.452;8.656;2023-02-15T12:28:41;20.15;;;18.05;;
1765;SDS011;880;52.452;8.656;2023-02-15T12:31:20;19.08;;;17.05;;
1765;SDS011;880;52.452;8.656;2023-02-15T12:33:54;19.83;;;16.42;;
1765;SDS011;880;52.452;8.656;2023-02-15T12:36:25;18.83;;;16.85;;
1765;SDS011;880;52.452;8.656;2023-02-15T12:41:56;20.52;;;17.60;;
1765;SDS011;880;52.452;8.656;2023-02-15T12:44:34;21.40;;;18.55;;
1765;SDS011;880;52.452;8.656;2023-02-15T12:47:17;20.92;;;17.65;;
1765;SDS011;880;52.452;8.656;2023-02-15T12:50:03;19.30;;;17.20;;
1765;SDS011;880;52.452;8.656;2023-02-15T12:53:07;20.48;;;18.10;;
1765;SDS011;880;52.452;8.656;2023-02-15T12:55:49;22.27;;;19.35;;
1765;SDS011;880;52.452;8.656;2023-02-15T12:58:27;23.27;;;19.45;;
1765;SDS011;880;52.452;8.656;2023-02-15T13:06:22;25.58;;;21.20;;
1765;SDS011;880;52.452;8.656;2023-02-15T13:08:50;23.98;;;19.23;;
1765;SDS011;880;52.452;8.656;2023-02-15T13:14:14;26.00;;;19.33;;
1765;SDS011;880;52.452;8.656;2023-02-15T13:16:49;24.60;;;20.38;;
1765;SDS011;880;52.452;8.656;2023-02-15T13:19:30;25.55;;;19.70;;
1765;SDS011;880;52.452;8.656;2023-02-15T13:22:05;23.38;;;20.85;;
1765;SDS011;880;52.452;8.656;2023-02-15T13:24:39;23.75;;;19.48;;
1765;SDS011;880;52.452;8.656;2023-02-15T13:27:13;24.27;;;20.65;;
1765;SDS011;880;52.452;8.656;2023-02-15T13:29:44;29.45;;;21.58;;
1765;SDS011;880;52.452;8.656;2023-02-15T13:32:35;29.10;;;21.35;;
1765;SDS011;880;52.452;8.656;2023-02-15T13:35:10;30.23;;;23.13;;
1765;SDS011;880;52.452;8.656;2023-02-15T13:40:33;26.20;;;20.40;;
1765;SDS011;880;52.452;8.656;2023-02-15T13:46:35;26.50;;;21.00;;
1765;SDS011;880;52.452;8.656;2023-02-15T13:49:44;22.48;;;18.02;;
1765;SDS011;880;52.452;8.656;2023-02-15T13:58:17;27.55;;;19.90;;
1765;SDS011;880;52.452;8.656;2023-02-15T14:01:10;24.60;;;21.13;;
1765;SDS011;880;52.452;8.656;2023-02-15T14:04:00;27.98;;;21.65;;
1765;SDS011;880;52.452;8.656;2023-02-15T14:09:42;23.88;;;21.27;;
1765;SDS011;880;52.452;8.656;2023-02-15T14:12:30;23.25;;;19.48;;
1765;SDS011;880;52.452;8.656;2023-02-15T14:15:24;24.80;;;21.08;;
1765;SDS011;880;52.452;8.656;2023-02-15T14:21:10;25.17;;;21.17;;
1765;SDS011;880;52.452;8.656;2023-02-15T14:32:11;21.40;;;19.10;;
1765;SDS011;880;52.452;8.656;2023-02-15T14:35:09;22.80;;;19.98;;
1765;SDS011;880;52.452;8.656;2023-02-15T14:37:54;26.33;;;20.67;;
1765;SDS011;880;52.452;8.656;2023-02-15T14:40:44;25.17;;;20.67;;
1765;SDS011;880;52.452;8.656;2023-02-15T14:43:33;23.10;;;20.55;;
1765;SDS011;880;52.452;8.656;2023-02-15T14:56:43;26.70;;;21.70;;
1765;SDS011;880;52.452;8.656;2023-02-15T15:01:42;25.30;;;22.15;;
1765;SDS011;880;52.452;8.656;2023-02-15T15:06:59;30.80;;;21.40;;
1765;SDS011;880;52.452;8.656;2023-02-15T15:09:39;26.23;;;22.90;;
1765;SDS011;880;52.452;8.656;2023-02-15T15:12:15;23.75;;;21.20;;
1765;SDS011;880;52.452;8.656;2023-02-15T15:15:02;27.55;;;22.17;;
1765;SDS011;880;52.452;8.656;2023-02-15T15:20:02;25.80;;;21.70;;
1765;SDS011;880;52.452;8.656;2023-02-15T15:22:41;28.25;;;21.88;;
1765;SDS011;880;52.452;8.656;2023-02-15T15:25:10;28.75;;;22.13;;
1765;SDS011;880;52.452;8.656;2023-02-15T15:31:21;26.27;;;20.77;;
1765;SDS011;880;52.452;8.656;2023-02-15T15:37:41;23.45;;;20.73;;
1765;SDS011;880;52.452;8.656;2023-02-15T15:43:57;30.77;;;22.10;;
1765;SDS011;880;52.452;8.656;2023-02-15T15:50:11;29.98;;;22.17;;
1765;SDS011;880;52.452;8.656;2023-02-15T15:52:46;25.73;;;22.15;;
1765;SDS011;880;52.452;8.656;2023-02-15T15:55:18;28.13;;;23.20;;
1765;SDS011;880;52.452;8.656;2023-02-15T15:57:50;29.98;;;24.33;;
1765;SDS011;880;52.452;8.656;2023-02-15T16:02:53;26.30;;;20.65;;
1765;SDS011;880;52.452;8.656;2023-02-15T16:05:21;27.60;;;21.27;;
1765;SDS011;880;52.452;8.656;2023-02-15T16:07:49;27.48;;;21.23;;
1765;SDS011;880;52.452;8.656;2023-02-15T16:10:25;24.92;;;20.15;;
1765;SDS011;880;52.452;8.656;2023-02-15T16:12:54;25.40;;;19.63;;
1765;SDS011;880;52.452;8.656;2023-02-15T16:15:22;26.70;;;23.90;;
1765;SDS011;880;52.452;8.656;2023-02-15T16:17:54;26.70;;;19.85;;
1765;SDS011;880;52.452;8.656;2023-02-15T16:20:34;23.30;;;19.50;;
1765;SDS011;880;52.452;8.656;2023-02-15T16:23:29;26.52;;;21.52;;
1765;SDS011;880;52.452;8.656;2023-02-15T16:29:23;27.27;;;20.90;;
1765;SDS011;880;52.452;8.656;2023-02-15T16:31:59;24.05;;;19.65;;
1765;SDS011;880;52.452;8.656;2023-02-15T16:37:31;26.27;;;19.33;;
1765;SDS011;880;52.452;8.656;2023-02-15T16:40:00;25.88;;;17.48;;
1765;SDS011;880;52.452;8.656;2023-02-15T16:42:27;24.95;;;18.92;;
1765;SDS011;880;52.452;8.656;2023-02-15T16:45:16;25.30;;;19.02;;
1765;SDS011;880;52.452;8.656;2023-02-15T16:47:46;25.05;;;16.80;;
1765;SDS011;880;52.452;8.656;2023-02-15T16:50:23;24.20;;;17.10;;
1765;SDS011;880;52.452;8.656;2023-02-15T16:53:01;23.05;;;16.17;;
1765;SDS011;880;52.452;8.656;2023-02-15T16:55:39;26.25;;;18.90;;
1765;SDS011;880;52.452;8.656;2023-02-15T16:58:12;25.98;;;16.83;;
1765;SDS011;880;52.452;8.656;2023-02-15T17:00:42;23.23;;;18.88;;
1765;SDS011;880;52.452;8.656;2023-02-15T17:08:25;28.55;;;17.08;;
1765;SDS011;880;52.452;8.656;2023-02-15T17:11:03;20.90;;;17.40;;
1765;SDS011;880;52.452;8.656;2023-02-15T17:13:34;20.90;;;15.93;;
1765;SDS011;880;52.452;8.656;2023-02-15T17:18:33;21.75;;;16.38;;
1765;SDS011;880;52.452;8.656;2023-02-15T17:21:25;29.52;;;22.45;;
1765;SDS011;880;52.452;8.656;2023-02-15T17:24:04;30.63;;;22.33;;
1765;SDS011;880;52.452;8.656;2023-02-15T17:26:34;24.42;;;19.48;;
1765;SDS011;880;52.452;8.656;2023-02-15T17:29:11;25.38;;;17.63;;
1765;SDS011;880;52.452;8.656;2023-02-15T17:31:50;26.00;;;16.85;;
1765;SDS011;880;52.452;8.656;2023-02-15T17:40:46;66.07;;;35.75;;
1765;SDS011;880;52.452;8.656;2023-02-15T17:42:56;67.22;;;36.03;;
1765;SDS011;880;52.452;8.656;2023-02-15T17:45:30;246.13;;;115.78;;
1765;SDS011;880;52.452;8.656;2023-02-15T17:48:01;104.82;;;70.20;;
1765;SDS011;880;52.452;8.656;2023-02-15T17:50:31;37.78;;;27.95;;
1765;SDS011;880;52.452;8.656;2023-02-15T17:52:59;26.58;;;20.65;;
1765;SDS011;880;52.452;8.656;2023-02-15T17:55:27;26.27;;;18.77;;
1765;SDS011;880;52.452;8.656;2023-02-15T17:58:10;21.60;;;14.77;;
1765;SDS011;880;52.452;8.656;2023-02-15T18:00:43;22.75;;;15.07;;
1765;SDS011;880;52.452;8.656;2023-02-15T18:03:45;28.30;;;16.30;;
1765;SDS011;880;52.452;8.656;2023-02-15T18:06:34;26.92;;;18.55;;
1765;SDS011;880;52.452;8.656;2023-02-15T18:09:23;40.13;;;26.85;;
1765;SDS011;880;52.452;8.656;2023-02-15T18:14:56;27.73;;;21.88;;
1765;SDS011;880;52.452;8.656;2023-02-15T18:17:29;26.83;;;18.98;;
1765;SDS011;880;52.452;8.656;2023-02-15T18:20:09;23.42;;;17.70;;
1765;SDS011;880;52.452;8.656;2023-02-15T18:25:20;20.63;;;13.75;;
1765;SDS011;880;52.452;8.656;2023-02-15T18:27:51;20.15;;;13.75;;
1765;SDS011;880;52.452;8.656;2023-02-15T18:30:21;22.85;;;15.48;;
1765;SDS011;880;52.452;8.656;2023-02-15T18:32:53;18.95;;;13.18;;
1765;SDS011;880;52.452;8.656;2023-02-15T18:35:23;21.55;;;14.57;;
1765;SDS011;880;52.452;8.656;2023-02-15T18:37:53;21.67;;;13.75;;
1765;SDS011;880;52.452;8.656;2023-02-15T18:40:21;20.23;;;13.40;;
1765;SDS011;880;52.452;8.656;2023-02-15T18:42:52;24.58;;;15.43;;
1765;SDS011;880;52.452;8.656;2023-02-15T18:45:23;18.58;;;14.43;;
1765;SDS011;880;52.452;8.656;2023-02-15T18:47:59;20.80;;;14.05;;
1765;SDS011;880;52.452;8.656;2023-02-15T18:50:27;18.92;;;13.30;;